Latest Coastal Weather Observations for Coolangatta

IDQ60701

Issued at 2:45 pm EST Tuesday 29 July 2014 (issued every 10 minutes, with the page automatically refreshed every 10 minutes)

About coastal observations | Map of coastal stations | Coastal observations for QLD | Marine services | Other Formats
Station Details ID: 040717 Name: COOLANGATTA Lat: -28.17 Lon: 153.51 Height: 4.0 m
Data from the previous 72 hours. | See also: Recent months at Coolangatta
Date/Time
EST
Temp

°C
Wind Pressure Rain
since 9am
mm
Weather Cloud Vis
km
Sea
Height
m
Swell
Dir
 
Speed
knots
Gust
knots
hPa Trend Height
m
Period
s
Dir
29/02:30pm 19.8 ENE 8 11 1019.9 - 0.0 - - 10 - - - -
29/02:00pm 20.1 ENE 9 11 1020.0 - 0.0 - - 10 - - - -
29/01:30pm 20.1 ENE 9 12 1020.2 - 0.0 - - 10 - - - -
29/01:00pm 20.1 NE 8 11 1020.3 - 0.0 - - 10 - - - -
29/12:30pm 20.1 NE 10 12 1020.5 - 0.0 - - 10 - - - -
29/12:00pm 19.8 NNE 10 11 1020.8 - 0.0 - - 10 - - - -
29/11:30am 20.2 SE 6 10 1021.4 - 0.0 - - 10 - - - -
29/11:00am 19.7 SSE 7 11 1022.0 - 0.0 - - 10 - - - -
29/10:30am 19.3 SSE 7 9 1022.1 - 0.0 - - 10 - - - -
29/10:00am 19.1 SW 4 5 1022.3 - 0.0 - - 10 - - - -
29/09:30am 18.4 W 2 5 1022.4 - 0.0 - - 10 - - - -
29/09:00am 16.9 NNW 4 6 1022.5 - 0.0 - - 10 - - - -
29/08:30am 14.9 W 2 4 1022.5 - 0.0 - - 10 - - - -
29/08:00am 12.4 CALM 0 0 1022.2 - 0.0 - - 10 - - - -
29/07:30am 9.9 WSW 5 6 1021.9 - 0.0 - - 10 - - - -
29/07:00am 7.6 WSW 4 5 1021.7 - 0.0 - - 10 - - - -
29/06:30am 7.2 WSW 4 5 1021.4 - 0.0 - - 10 - - - -
29/06:00am 7.9 SW 3 6 1021.1 - 0.0 - - 10 - - - -
29/05:30am 8.0 WSW 7 8 1020.8 - 0.0 - - 10 - - - -
29/05:00am 8.1 WNW 6 7 1020.5 - 0.0 - - 10 - - - -
29/04:30am 10.2 W 4 5 1020.3 - 0.0 - - 10 - - - -
29/04:00am 12.2 NW 7 8 1019.9 - 0.0 - - 10 - - - -
29/03:30am 11.8 NNW 6 7 1019.8 - 0.0 - - 10 - - - -
29/03:00am 11.7 NNW 7 8 1019.9 - 0.0 - - 10 - - - -
29/02:30am 12.6 NW 4 5 1020.0 - 0.0 - - 10 - - - -
29/02:00am 13.3 NW 6 9 1020.2 - 0.0 - - 10 - - - -
29/01:30am 14.3 NW 8 9 1020.4 - 0.0 - - 10 - - - -
29/01:00am 14.4 WNW 7 9 1020.6 - 0.0 - - 10 - - - -
29/12:30am 15.0 WNW 8 10 1021.0 - 0.0 - - 10 - - - -
29/12:00am 14.6 WNW 7 9 1021.3 - 0.0 - - 10 - - - -
 
Date/Time
EST
Temp

°C
Wind Pressure Rain
since 9am
mm
Weather Cloud Vis
km
Sea
Height
m
Swell
Dir
 
Speed
knots
Gust
knots
hPa Trend Height
m
Period
s
Dir
28/11:30pm 14.6 WNW 7 9 1021.6 - 0.0 - - 10 - - - -
28/11:00pm 14.9 WNW 8 10 1021.8 - 0.0 - - 10 - - - -
28/10:30pm 14.9 WNW 8 11 1021.9 - 0.0 - - 10 - - - -
28/10:00pm 11.3 W 4 5 1022.0 - 0.0 - - 10 - - - -
28/09:30pm 11.6 W 4 5 1022.2 - 0.0 - - 10 - - - -
28/09:00pm 12.6 WSW 3 4 1022.3 - 0.0 - - 10 - - - -
28/08:30pm 13.2 WSW 5 6 1022.2 - 0.0 - - 10 - - - -
28/08:00pm 14.5 W 5 7 1021.8 - 0.0 - - 10 - - - -
28/07:30pm 17.3 NNW 8 14 1021.6 - 0.0 - - 10 - - - -
28/07:00pm 18.1 N 10 14 1021.4 - 0.0 - - 10 - - - -
28/06:30pm 18.4 N 11 15 1021.1 - 0.0 - - 10 - - - -
28/06:00pm 18.6 N 11 14 1020.8 - 0.0 - - 10 - - - -
28/05:30pm 18.7 N 11 15 1020.7 - 0.0 - - 10 - - - -
28/05:00pm 19.2 N 12 15 1020.5 - 0.0 - - 10 - - - -
28/04:30pm 19.8 NNE 12 16 1020.1 - 0.0 - - 10 - - - -
28/04:00pm 20.3 NNE 13 17 1020.0 - 0.0 - - 10 - - - -
28/03:30pm 21.0 NNE 12 16 1020.1 - 0.0 - - 10 - - - -
28/03:00pm 22.4 NW 8 12 1020.1 - 0.0 - - 10 - - - -
28/02:30pm 22.0 NW 11 16 1020.3 - 0.0 - - 10 - - - -
28/02:00pm 22.5 NNW 10 16 1020.6 - 0.0 - - 10 - - - -
28/01:30pm 22.1 NW 11 17 1020.7 - 0.0 - - 10 - - - -
28/01:00pm 22.3 N 12 20 1021.3 - 0.0 - Partly cloudy 10 - - - -
28/12:30pm 21.4 N 11 16 1021.9 - 0.0 - Partly cloudy 10 - - - -
28/12:00pm 21.3 N 15 18 1022.2 - 0.0 - Mostly clear 10 - - - -
28/11:30am 21.0 N 14 18 1022.7 - 0.0 - Partly cloudy 10 - - - -
28/11:00am 21.0 N 13 17 1023.2 - 0.0 - - 10 - - - -
28/10:30am 20.5 NW 11 15 1023.5 - 0.0 - - 10 - - - -
28/10:00am 20.5 NW 9 14 1023.9 - 0.0 - - 10 - - - -
28/09:30am 19.4 NW 7 9 1024.1 - 0.0 - - 10 - - - -
28/09:00am 17.8 W 4 5 1024.1 - 0.0 - - 10 - - - -
28/08:30am 15.0 WSW 4 5 1023.9 - 0.0 - - 10 - - - -
28/08:00am 12.3 SW 4 5 1023.7 - 0.0 - - 10 - - - -
28/07:30am 10.6 SW 3 5 1023.3 - 0.0 - - 10 - - - -
28/07:00am 8.7 SSW 3 3 1023.2 - 0.0 - - 10 - - - -
28/06:30am 8.7 SW 2 4 1023.3 - 0.0 - - 10 - - - -
28/06:00am 8.2 WSW 4 5 1023.0 - 0.0 - - 10 - - - -
28/05:57am 7.8 SW 3 5 1023.0 - 0.0 - - 10 - - - -
28/05:39am 7.1 CALM 0 0 1022.9 - 0.0 - - 6 - - - -
28/05:30am 8.1 SSW 1 3 1022.8 - 0.0 - - 10 - - - -
28/05:00am 8.1 SSW 3 4 1023.0 - 0.0 - - 10 - - - -
28/04:39am 8.4 SSW 4 5 1022.9 - 0.0 - - 10 - - - -
28/04:30am 8.9 S 2 4 1022.9 - 0.0 - - 8 - - - -
28/04:17am 8.0 S 1 3 1023.0 - 0.0 - - 6 - - - -
28/04:00am 8.6 SSW 3 4 1023.0 - 0.0 - - 10 - - - -
28/03:30am 9.1 SSW 3 4 1023.0 - 0.0 - - 10 - - - -
28/03:00am 8.9 SSW 3 4 1023.0 - 0.0 - - 10 - - - -
28/02:30am 9.4 SW 3 4 1022.9 - 0.0 - - 10 - - - -
28/02:00am 9.2 SSW 3 4 1022.9 - 0.0 - - 10 - - - -
28/01:30am 8.6 SSW 3 4 1023.2 - 0.0 - - 10 - - - -
28/01:00am 10.2 SSW 1 3 1023.5 - 0.0 - - 10 - - - -
28/12:30am 10.4 SW 4 5 1023.6 - 0.0 - - 10 - - - -
28/12:00am 10.7 SW 4 5 1023.5 - 0.0 - - 10 - - - -
 
Date/Time
EST
Temp

°C
Wind Pressure Rain
since 9am
mm
Weather Cloud Vis
km
Sea
Height
m
Swell
Dir
 
Speed
knots
Gust
knots
hPa Trend Height
m
Period
s
Dir
27/11:30pm 11.0 SSW 4 4 1023.8 - 0.0 - - 10 - - - -
27/11:00pm 10.6 SW 4 5 1024.0 - 0.0 - - 10 - - - -
27/10:30pm 9.9 SW 4 5 1024.0 - 0.0 - - 10 - - - -
27/10:00pm 10.6 SW 4 5 1024.1 - 0.0 - - 10 - - - -
27/09:30pm 11.9 SW 5 6 1024.1 - 0.0 - - 10 - - - -
27/09:00pm 11.3 WSW 6 7 1024.0 - 0.0 - - 10 - - - -
27/08:30pm 11.3 SSW 4 5 1023.8 - 0.0 - - 10 - - - -
27/08:00pm 11.1 WSW 5 6 1023.8 - 0.0 - - 10 - - - -
27/07:30pm 12.1 WSW 3 4 1023.6 - 0.0 - - 10 - - - -
27/07:00pm 13.0 S 3 6 1023.4 - 0.0 - - 10 - - - -
27/06:30pm 14.5 SSW 5 6 1023.2 - 0.0 - - 10 - - - -
27/06:00pm 15.8 SSW 5 6 1022.8 - 0.0 - - 10 - - - -
27/05:30pm 15.4 SSE 7 8 1022.5 - 0.0 - - 10 - - - -
27/05:00pm 17.6 SSE 9 12 1022.3 - 0.0 - - 10 - - - -
27/04:30pm 18.7 SSE 12 15 1021.8 - 0.0 - - 10 - - - -
27/04:00pm 19.5 SE 10 13 1021.6 - 0.0 - - 10 - - - -
27/03:30pm 19.9 ESE 12 15 1021.4 - 0.0 - - 10 - - - -
27/03:00pm 20.1 ESE 13 16 1021.2 - 0.0 - - 10 - - - -
27/02:30pm 20.6 SE 15 21 1021.1 - 0.0 - - 10 - - - -
27/02:00pm 21.0 ESE 15 19 1021.1 - 0.0 - - 10 - - - -
27/01:30pm 21.5 SE 12 17 1021.2 - 0.0 - - 10 - - - -
27/01:00pm 21.7 ESE 14 17 1021.3 - 0.0 - - 10 - - - -
27/12:30pm 21.6 SSE 9 15 1021.7 - 0.0 - - 10 - - - -
27/12:00pm 21.9 S 5 10 1022.2 - 0.0 - - 10 - - - -
27/11:30am 21.7 S 6 11 1022.8 - 0.0 - - 10 - - - -
27/11:00am 21.1 S 10 14 1023.4 - 0.0 - - 10 - - - -
27/10:30am 19.8 SSE 10 13 1023.8 - 0.0 - - 10 - - - -
27/10:00am 20.3 SSW 8 12 1024.0 - 0.0 - - 10 - - - -
27/09:30am 19.9 SSW 8 12 1024.0 - 0.0 - - 10 - - - -
27/09:00am 18.8 SSW 9 13 1023.9 - 0.4 - - 10 - - - -
27/08:30am 17.4 SW 5 7 1023.8 - 0.4 - - 10 - - - -
27/08:00am 14.7 WSW 5 6 1023.5 - 0.4 - - 10 - - - -
27/07:30am 12.8 SW 5 6 1023.3 - 0.4 - - 10 - - - -
27/07:00am 11.0 SW 3 5 1023.0 - 0.4 - - 10 - - - -
27/06:30am 10.9 SW 7 7 1022.8 - 0.4 - - 10 - - - -
27/06:11am 10.3 WSW 6 7 1022.6 - 0.4 - - 9 - - - -
27/06:00am 10.0 SSW 3 5 1022.6 - 0.4 - - 3 - - - -
27/05:30am 10.4 WSW 2 4 1022.2 - 0.2 - - 6 - - - -
27/05:05am 11.0 SSE 2 4 1022.0 - 0.2 - - 3 - - - -
27/05:00am 11.9 SSE 3 4 1022.0 - 0.2 - - 10 - - - -
27/04:30am 11.3 WSW 4 5 1021.8 - 0.2 - - 8 - - - -
27/04:00am 11.3 NW 4 6 1021.8 - 0.2 - - 10 - - - -
27/03:30am 12.7 WNW 4 6 1021.8 - 0.2 - - 10 - - - -
27/03:10am 12.2 NE 4 8 1021.8 - 0.2 - - 10 - - - -
27/03:00am 12.4 ENE 1 4 1022.0 - 0.2 - Mostly clear 4 - - - -
27/02:51am 11.7 N 3 4 1022.2 - 0.2 - Partly cloudy 5 - - - -
27/02:30am 13.3 N 2 5 1022.1 - 0.2 - Partly cloudy 10 - - - -
27/02:00am 13.7 SSW 3 6 1022.4 - 0.2 - Partly cloudy 10 - - - -
27/01:46am 13.4 SW 5 7 1022.3 - 0.2 - Partly cloudy 10 - - - -
27/01:30am 12.6 SW 3 5 1022.3 - 0.2 - Partly cloudy 4 - - - -
27/01:14am 12.6 CALM 0 0 1022.3 - 0.2 - - 5 - - - -
27/01:00am 14.1 WSW 2 4 1022.5 - 0.2 - - 10 - - - -
27/12:30am 14.0 NW 5 6 1022.8 - 0.2 - - 10 - - - -
27/12:00am 14.7 N 5 6 1022.8 - 0.2 - - 10 - - - -
 
Date/Time
EST
Temp

°C
Wind Pressure Rain
since 9am
mm
Weather Cloud Vis
km
Sea
Height
m
Swell
Dir
 
Speed
knots
Gust
knots
hPa Trend Height
m
Period
s
Dir
26/11:30pm 15.2 NW 5 6 1023.2 - 0.2 - - 10 - - - -
26/11:00pm 15.9 WSW 3 6 1023.5 - 0.2 - Partly cloudy 10 - - - -
26/10:30pm 15.7 WSW 2 4 1023.7 - 0.2 - Partly cloudy 10 - - - -
26/10:00pm 16.0 WNW 2 5 1023.9 - 0.2 - Partly cloudy 10 - - - -
26/09:30pm 16.4 NW 4 6 1024.0 - 0.2 - Partly cloudy 10 - - - -
26/09:00pm 17.4 NW 7 9 1024.1 - 0.2 - Cloudy 10 - - - -
26/08:30pm 17.3 N 1 4 1024.2 - 0.2 - Partly cloudy 10 - - - -
26/08:00pm 17.4 W 4 6 1024.0 - 0.2 - Partly cloudy 10 - - - -
26/07:30pm 17.6 NW 8 12 1024.2 - 0.2 - Cloudy 10 - - - -
26/07:00pm 17.5 WNW 9 12 1024.0 - 0.2 - Cloudy 10 - - - -
26/06:30pm 17.9 NW 7 10 1024.0 - 0.2 - Cloudy 10 - - - -
26/06:00pm 18.5 N 11 14 1023.3 - 0.2 - Mostly cloudy 10 - - - -
26/05:30pm 18.9 NNW 9 14 1023.5 - 0.0 - Partly cloudy 10 - - - -
26/05:00pm 19.9 NNW 10 13 1023.2 - 0.0 - Partly cloudy 10 - - - -
26/04:30pm 20.2 N 12 16 1023.1 - 0.0 - Partly cloudy 10 - - - -
26/04:00pm 20.3 N 14 18 1023.1 - 0.0 - - 10 - - - -
26/03:30pm 20.7 N 14 17 1022.9 - 0.0 - - 10 - - - -
26/03:00pm 20.9 N 12 16 1022.9 - 0.0 - - 10 - - - -

Other Formats:

Comma delimited format used in spreadsheet applications
http://www.bom.gov.au/fwo/IDQ60701/IDQ60701.94592.axf

JavaScript Object Notation format (JSON) in row-major order
http://www.bom.gov.au/fwo/IDQ60701/IDQ60701.94592.json